Terminal Aerodrome Forecast
Issued by NWS Sioux Falls, SD

Home | Current Version | Previous Version | Graphics & Text | Print | Product List | Glossary On
Versions: 1 2 3 4 5 6 7 8 9 10 11 12 13 14 15 16 17 18 19 20 21 22 23 24 25 26 27 28 29 30 31 32 33 34 35 36
000
FTUS43 KFSD 041120
TAFSUX
TAF
KSUX 041120Z 0412/0512 02009KT P6SM SCT090 OVC200
     FM041400 05014G20KT P6SM BKN100
     FM042200 07012KT P6SM OVC070
      TEMPO 0422/0424 5SM -SHRA
     FM050000 08011KT 6SM -SHRA OVC040
     FM050400 07009KT P6SM SCT035 OVC080=

USA.gov is the U.S. government's official web portal to all federal, state and local government web resources and services.